Chalgrove Airport


Codes: EGLJ/
Name: Chalgrove Airport
City: Chalgrove
Country: United Kingdom
Elevation: 240 ft.
Wikipedia:

Photos at Chalgrove Airport


   Photos courtesy of SpottingLog. You can add your own sightings and photos by signing up for a free trial today.



No photos found.

Weather at Chalgrove Airport


Time (UTC)DescriptionTempratureWindCloud coverageVisibilityPressureHumidity
21-Jun-2024 12:00Light Rain20°C11 mph, SW24%10000m1012hPa60%
21-Jun-2024 15:00Scattered Clouds21°C13 mph, SW27%10000m1011hPa58%
21-Jun-2024 18:00Light Rain18°C13 mph, SW56%10000m1011hPa77%
21-Jun-2024 21:00Overcast Clouds14°C13 mph, SW100%10000m1012hPa81%
22-Jun-2024 00:00Light Rain12°C9 mph, SW100%10000m1011hPa94%
22-Jun-2024 03:00Light Rain13°C9 mph, SW100%7417m1010hPa98%
22-Jun-2024 06:00Overcast Clouds13°C9 mph, W93%10000m1011hPa93%
22-Jun-2024 09:00Light Rain15°C11 mph, NW68%10000m1012hPa81%
22-Jun-2024 12:00Light Rain17°C9 mph, NW80%5973m1013hPa79%
22-Jun-2024 15:00Light Rain19°C9 mph, NW69%10000m1013hPa64%
22-Jun-2024 18:00Light Rain19°C7 mph, NW47%10000m1015hPa70%
22-Jun-2024 21:00Clear Sky13°C2 mph, NW9%10000m1017hPa84%
23-Jun-2024 00:00Clear Sky11°C4 mph, W7%10000m1018hPa92%
23-Jun-2024 03:00Clear Sky10°C4 mph, W2%10000m1019hPa92%
23-Jun-2024 06:00Clear Sky13°C2 mph, W2%10000m1020hPa84%
23-Jun-2024 09:00Clear Sky18°C4 mph, W5%10000m1021hPa68%
23-Jun-2024 12:00Clear Sky21°C4 mph, W3%10000m1021hPa58%
23-Jun-2024 15:00Clear Sky22°C4 mph, W1%10000m1021hPa56%
23-Jun-2024 18:00Clear Sky21°C2 mph, W5%10000m1020hPa64%
23-Jun-2024 21:00Scattered Clouds16°C0 mph, W43%10000m1021hPa79%
24-Jun-2024 00:00Scattered Clouds14°C2 mph, SW37%10000m1021hPa86%
24-Jun-2024 03:00Scattered Clouds13°C0 mph, SW28%10000m1020hPa89%
24-Jun-2024 06:00Few Clouds16°C2 mph, S17%10000m1020hPa86%
24-Jun-2024 09:00Clear Sky20°C4 mph, S2%10000m1020hPa70%
24-Jun-2024 12:00Clear Sky23°C7 mph, S4%10000m1019hPa59%
24-Jun-2024 15:00Clear Sky23°C7 mph, S2%10000m1018hPa55%
24-Jun-2024 18:00Clear Sky22°C7 mph, SW7%10000m1017hPa69%
24-Jun-2024 21:00Few Clouds16°C4 mph, SW14%10000m1018hPa87%
25-Jun-2024 00:00Few Clouds14°C2 mph, S14%10000m1017hPa86%
25-Jun-2024 03:00Clear Sky13°C0 mph, SE0%10000m1016hPa90%
25-Jun-2024 06:00Clear Sky16°C2 mph, E1%10000m1016hPa86%
25-Jun-2024 09:00Clear Sky21°C4 mph, E4%10000m1015hPa73%
25-Jun-2024 12:00Light Rain23°C4 mph, SE30%10000m1013hPa62%
25-Jun-2024 15:00Light Rain23°C2 mph, N99%10000m1012hPa64%
25-Jun-2024 18:00Light Rain22°C7 mph, NE87%10000m1011hPa77%
25-Jun-2024 21:00Light Rain17°C9 mph, E36%10000m1011hPa85%
26-Jun-2024 00:00Few Clouds15°C4 mph, E20%10000m1010hPa91%
26-Jun-2024 03:00Broken Clouds14°C4 mph, NE76%10000m1008hPa93%
26-Jun-2024 06:00Overcast Clouds15°C7 mph, NE88%10000m1007hPa89%
26-Jun-2024 09:00Overcast Clouds20°C9 mph, NE100%10000m1005hPa78%